sensor_id;sensor_type;location;lat;lon;timestamp;P1;durP1;ratioP1;P2;durP2;ratioP2
5285;SDS011;2665;53.112;7.358;2022-10-18T00:01:21;18.17;;;11.47;;
5285;SDS011;2665;53.112;7.358;2022-10-18T00:03:46;19.20;;;11.87;;
5285;SDS011;2665;53.112;7.358;2022-10-18T00:06:12;17.17;;;9.23;;
5285;SDS011;2665;53.112;7.358;2022-10-18T00:08:37;16.37;;;9.80;;
5285;SDS011;2665;53.112;7.358;2022-10-18T00:11:03;15.23;;;10.73;;
5285;SDS011;2665;53.112;7.358;2022-10-18T00:13:30;18.13;;;10.30;;
5285;SDS011;2665;53.112;7.358;2022-10-18T00:15:57;15.20;;;9.37;;
5285;SDS011;2665;53.112;7.358;2022-10-18T00:18:25;16.50;;;10.10;;
5285;SDS011;2665;53.112;7.358;2022-10-18T00:20:58;17.97;;;10.80;;
5285;SDS011;2665;53.112;7.358;2022-10-18T00:23:26;14.60;;;9.93;;
5285;SDS011;2665;53.112;7.358;2022-10-18T00:26:14;22.00;;;10.50;;
5285;SDS011;2665;53.112;7.358;2022-10-18T00:28:44;16.53;;;10.07;;
5285;SDS011;2665;53.112;7.358;2022-10-18T00:33:39;17.73;;;10.23;;
5285;SDS011;2665;53.112;7.358;2022-10-18T00:36:04;14.37;;;9.63;;
5285;SDS011;2665;53.112;7.358;2022-10-18T00:38:30;21.33;;;10.83;;
5285;SDS011;2665;53.112;7.358;2022-10-18T00:40:56;19.03;;;10.50;;
5285;SDS011;2665;53.112;7.358;2022-10-18T00:43:21;18.20;;;9.53;;
5285;SDS011;2665;53.112;7.358;2022-10-18T00:45:47;21.37;;;10.33;;
5285;SDS011;2665;53.112;7.358;2022-10-18T00:48:13;19.87;;;9.37;;
5285;SDS011;2665;53.112;7.358;2022-10-18T00:50:41;17.07;;;10.23;;
5285;SDS011;2665;53.112;7.358;2022-10-18T00:53:08;18.40;;;10.03;;
5285;SDS011;2665;53.112;7.358;2022-10-18T00:55:39;15.60;;;9.93;;
5285;SDS011;2665;53.112;7.358;2022-10-18T00:58:05;17.93;;;10.07;;
5285;SDS011;2665;53.112;7.358;2022-10-18T01:00:32;18.27;;;10.30;;
5285;SDS011;2665;53.112;7.358;2022-10-18T01:03:02;14.30;;;8.97;;
5285;SDS011;2665;53.112;7.358;2022-10-18T01:05:28;13.53;;;7.10;;
5285;SDS011;2665;53.112;7.358;2022-10-18T01:08:18;15.20;;;8.07;;
5285;SDS011;2665;53.112;7.358;2022-10-18T01:10:51;21.23;;;9.77;;
5285;SDS011;2665;53.112;7.358;2022-10-18T01:13:40;16.77;;;9.83;;
5285;SDS011;2665;53.112;7.358;2022-10-18T01:16:26;17.70;;;10.60;;
5285;SDS011;2665;53.112;7.358;2022-10-18T01:19:05;14.70;;;9.03;;
5285;SDS011;2665;53.112;7.358;2022-10-18T01:32:27;15.20;;;8.10;;
5285;SDS011;2665;53.112;7.358;2022-10-18T01:35:02;15.23;;;9.37;;
5285;SDS011;2665;53.112;7.358;2022-10-18T01:37:31;13.90;;;8.10;;
5285;SDS011;2665;53.112;7.358;2022-10-18T01:39:58;15.70;;;8.73;;
5285;SDS011;2665;53.112;7.358;2022-10-18T01:42:27;14.67;;;8.60;;
5285;SDS011;2665;53.112;7.358;2022-10-18T01:44:53;17.67;;;9.80;;
5285;SDS011;2665;53.112;7.358;2022-10-18T01:47:20;16.87;;;9.20;;
5285;SDS011;2665;53.112;7.358;2022-10-18T01:49:46;16.47;;;7.13;;
5285;SDS011;2665;53.112;7.358;2022-10-18T01:52:13;12.77;;;8.13;;
5285;SDS011;2665;53.112;7.358;2022-10-18T01:54:40;13.10;;;7.60;;
5285;SDS011;2665;53.112;7.358;2022-10-18T02:00:28;14.90;;;9.90;;
5285;SDS011;2665;53.112;7.358;2022-10-18T02:03:03;13.97;;;8.47;;
5285;SDS011;2665;53.112;7.358;2022-10-18T02:08:24;23.07;;;11.10;;
5285;SDS011;2665;53.112;7.358;2022-10-18T02:10:59;21.73;;;9.37;;
5285;SDS011;2665;53.112;7.358;2022-10-18T02:13:35;17.00;;;9.53;;
5285;SDS011;2665;53.112;7.358;2022-10-18T02:16:09;16.07;;;9.33;;
5285;SDS011;2665;53.112;7.358;2022-10-18T02:18:57;13.97;;;9.17;;
5285;SDS011;2665;53.112;7.358;2022-10-18T02:21:25;20.87;;;9.50;;
5285;SDS011;2665;53.112;7.358;2022-10-18T02:23:53;15.10;;;8.87;;
5285;SDS011;2665;53.112;7.358;2022-10-18T02:26:21;17.27;;;10.00;;
5285;SDS011;2665;53.112;7.358;2022-10-18T02:28:47;20.17;;;9.53;;
5285;SDS011;2665;53.112;7.358;2022-10-18T02:34:00;17.43;;;10.00;;
5285;SDS011;2665;53.112;7.358;2022-10-18T02:36:42;16.90;;;8.87;;
5285;SDS011;2665;53.112;7.358;2022-10-18T02:39:15;16.13;;;9.83;;
5285;SDS011;2665;53.112;7.358;2022-10-18T02:41:44;15.77;;;9.60;;
5285;SDS011;2665;53.112;7.358;2022-10-18T02:44:11;14.77;;;8.10;;
5285;SDS011;2665;53.112;7.358;2022-10-18T02:46:37;13.90;;;7.47;;
5285;SDS011;2665;53.112;7.358;2022-10-18T02:49:03;14.13;;;8.73;;
5285;SDS011;2665;53.112;7.358;2022-10-18T02:51:29;15.77;;;8.93;;
5285;SDS011;2665;53.112;7.358;2022-10-18T02:53:55;16.97;;;8.60;;
5285;SDS011;2665;53.112;7.358;2022-10-18T02:56:20;18.43;;;9.30;;
5285;SDS011;2665;53.112;7.358;2022-10-18T02:58:46;15.57;;;9.30;;
5285;SDS011;2665;53.112;7.358;2022-10-18T03:01:11;14.23;;;8.13;;
5285;SDS011;2665;53.112;7.358;2022-10-18T03:03:37;17.43;;;9.87;;
5285;SDS011;2665;53.112;7.358;2022-10-18T03:06:02;13.67;;;8.07;;
5285;SDS011;2665;53.112;7.358;2022-10-18T03:08:29;19.10;;;9.90;;
5285;SDS011;2665;53.112;7.358;2022-10-18T03:10:54;10.37;;;7.23;;
5285;SDS011;2665;53.112;7.358;2022-10-18T03:13:20;14.30;;;6.97;;
5285;SDS011;2665;53.112;7.358;2022-10-18T03:15:46;31.20;;;9.40;;
5285;SDS011;2665;53.112;7.358;2022-10-18T03:18:12;51.00;;;8.47;;
5285;SDS011;2665;53.112;7.358;2022-10-18T03:20:38;66.30;;;8.63;;
5285;SDS011;2665;53.112;7.358;2022-10-18T03:23:04;23.40;;;8.07;;
5285;SDS011;2665;53.112;7.358;2022-10-18T03:25:31;39.10;;;7.60;;
5285;SDS011;2665;53.112;7.358;2022-10-18T03:27:57;24.90;;;7.17;;
5285;SDS011;2665;53.112;7.358;2022-10-18T03:30:22;48.90;;;8.77;;
5285;SDS011;2665;53.112;7.358;2022-10-18T03:32:48;30.43;;;6.97;;
5285;SDS011;2665;53.112;7.358;2022-10-18T03:35:14;26.20;;;8.27;;
5285;SDS011;2665;53.112;7.358;2022-10-18T03:37:40;28.07;;;6.80;;
5285;SDS011;2665;53.112;7.358;2022-10-18T03:40:06;11.40;;;6.57;;
5285;SDS011;2665;53.112;7.358;2022-10-18T03:42:32;39.40;;;7.47;;
5285;SDS011;2665;53.112;7.358;2022-10-18T03:44:58;16.27;;;7.23;;
5285;SDS011;2665;53.112;7.358;2022-10-18T03:47:23;24.43;;;9.03;;
5285;SDS011;2665;53.112;7.358;2022-10-18T03:49:49;19.93;;;7.33;;
5285;SDS011;2665;53.112;7.358;2022-10-18T03:52:14;30.40;;;8.20;;
5285;SDS011;2665;53.112;7.358;2022-10-18T03:54:40;22.70;;;6.80;;
5285;SDS011;2665;53.112;7.358;2022-10-18T03:57:06;12.70;;;6.63;;
5285;SDS011;2665;53.112;7.358;2022-10-18T03:59:31;10.20;;;5.20;;
5285;SDS011;2665;53.112;7.358;2022-10-18T04:01:57;20.43;;;7.17;;
5285;SDS011;2665;53.112;7.358;2022-10-18T04:04:22;10.63;;;6.43;;
5285;SDS011;2665;53.112;7.358;2022-10-18T04:06:48;16.97;;;6.80;;
5285;SDS011;2665;53.112;7.358;2022-10-18T04:09:14;11.10;;;6.40;;
5285;SDS011;2665;53.112;7.358;2022-10-18T04:11:39;8.90;;;6.00;;
5285;SDS011;2665;53.112;7.358;2022-10-18T04:14:05;10.10;;;5.37;;
5285;SDS011;2665;53.112;7.358;2022-10-18T04:16:30;16.03;;;7.13;;
5285;SDS011;2665;53.112;7.358;2022-10-18T04:18:56;23.80;;;7.67;;
5285;SDS011;2665;53.112;7.358;2022-10-18T04:21:22;17.77;;;7.17;;
5285;SDS011;2665;53.112;7.358;2022-10-18T04:23:47;23.13;;;7.00;;
5285;SDS011;2665;53.112;7.358;2022-10-18T04:26:13;8.60;;;6.60;;
5285;SDS011;2665;53.112;7.358;2022-10-18T04:28:40;12.43;;;6.87;;
5285;SDS011;2665;53.112;7.358;2022-10-18T04:31:07;28.00;;;6.50;;
5285;SDS011;2665;53.112;7.358;2022-10-18T04:33:33;14.80;;;6.13;;
5285;SDS011;2665;53.112;7.358;2022-10-18T04:35:59;14.47;;;6.20;;
5285;SDS011;2665;53.112;7.358;2022-10-18T04:38:24;10.80;;;6.30;;
5285;SDS011;2665;53.112;7.358;2022-10-18T04:40:50;6.93;;;5.50;;
5285;SDS011;2665;53.112;7.358;2022-10-18T04:43:16;8.00;;;5.40;;
5285;SDS011;2665;53.112;7.358;2022-10-18T04:45:43;10.20;;;5.90;;
5285;SDS011;2665;53.112;7.358;2022-10-18T04:48:10;16.17;;;6.03;;
5285;SDS011;2665;53.112;7.358;2022-10-18T04:50:36;9.27;;;6.30;;
5285;SDS011;2665;53.112;7.358;2022-10-18T04:53:01;8.57;;;4.87;;
5285;SDS011;2665;53.112;7.358;2022-10-18T04:55:28;11.93;;;6.60;;
5285;SDS011;2665;53.112;7.358;2022-10-18T04:57:54;8.43;;;5.60;;
5285;SDS011;2665;53.112;7.358;2022-10-18T05:00:20;10.97;;;5.63;;
5285;SDS011;2665;53.112;7.358;2022-10-18T05:02:46;12.90;;;5.10;;
5285;SDS011;2665;53.112;7.358;2022-10-18T05:05:12;8.73;;;6.20;;
5285;SDS011;2665;53.112;7.358;2022-10-18T05:07:38;16.00;;;5.83;;
5285;SDS011;2665;53.112;7.358;2022-10-18T05:10:04;10.77;;;5.50;;
5285;SDS011;2665;53.112;7.358;2022-10-18T05:12:30;11.40;;;5.10;;
5285;SDS011;2665;53.112;7.358;2022-10-18T05:14:56;9.60;;;5.80;;
5285;SDS011;2665;53.112;7.358;2022-10-18T05:17:22;17.50;;;5.80;;
5285;SDS011;2665;53.112;7.358;2022-10-18T05:19:48;13.93;;;5.53;;
5285;SDS011;2665;53.112;7.358;2022-10-18T05:22:14;27.70;;;6.57;;
5285;SDS011;2665;53.112;7.358;2022-10-18T05:24:40;12.63;;;5.60;;
5285;SDS011;2665;53.112;7.358;2022-10-18T05:27:06;11.30;;;6.03;;
5285;SDS011;2665;53.112;7.358;2022-10-18T05:29:34;12.67;;;5.07;;
5285;SDS011;2665;53.112;7.358;2022-10-18T05:32:00;16.60;;;6.40;;
5285;SDS011;2665;53.112;7.358;2022-10-18T05:34:26;15.40;;;4.57;;
5285;SDS011;2665;53.112;7.358;2022-10-18T05:36:55;18.17;;;4.23;;
5285;SDS011;2665;53.112;7.358;2022-10-18T05:39:21;20.53;;;5.43;;
5285;SDS011;2665;53.112;7.358;2022-10-18T05:41:47;23.87;;;5.80;;
5285;SDS011;2665;53.112;7.358;2022-10-18T05:44:13;16.53;;;5.20;;
5285;SDS011;2665;53.112;7.358;2022-10-18T05:46:40;13.87;;;5.60;;
5285;SDS011;2665;53.112;7.358;2022-10-18T05:49:06;11.93;;;5.50;;
5285;SDS011;2665;53.112;7.358;2022-10-18T05:51:32;12.10;;;5.20;;
5285;SDS011;2665;53.112;7.358;2022-10-18T05:53:58;15.43;;;6.53;;
5285;SDS011;2665;53.112;7.358;2022-10-18T05:56:24;22.13;;;4.60;;
5285;SDS011;2665;53.112;7.358;2022-10-18T05:58:50;7.40;;;4.87;;
5285;SDS011;2665;53.112;7.358;2022-10-18T06:01:17;19.40;;;4.70;;
5285;SDS011;2665;53.112;7.358;2022-10-18T06:03:43;17.60;;;5.00;;
5285;SDS011;2665;53.112;7.358;2022-10-18T06:06:09;22.63;;;4.60;;
5285;SDS011;2665;53.112;7.358;2022-10-18T06:08:36;9.43;;;4.13;;
5285;SDS011;2665;53.112;7.358;2022-10-18T06:11:13;32.80;;;6.30;;
5285;SDS011;2665;53.112;7.358;2022-10-18T06:13:43;9.07;;;4.33;;
5285;SDS011;2665;53.112;7.358;2022-10-18T06:16:09;16.03;;;4.40;;
5285;SDS011;2665;53.112;7.358;2022-10-18T06:18:36;7.77;;;4.13;;
5285;SDS011;2665;53.112;7.358;2022-10-18T06:21:02;19.60;;;3.90;;
5285;SDS011;2665;53.112;7.358;2022-10-18T06:23:28;51.07;;;5.03;;
5285;SDS011;2665;53.112;7.358;2022-10-18T06:26:01;29.00;;;5.33;;
5285;SDS011;2665;53.112;7.358;2022-10-18T06:28:28;15.77;;;4.13;;
5285;SDS011;2665;53.112;7.358;2022-10-18T06:30:55;12.40;;;3.83;;
5285;SDS011;2665;53.112;7.358;2022-10-18T06:33:21;14.63;;;5.07;;
5285;SDS011;2665;53.112;7.358;2022-10-18T06:36:21;27.50;;;6.50;;
5285;SDS011;2665;53.112;7.358;2022-10-18T06:38:40;14.90;;;4.33;;
5285;SDS011;2665;53.112;7.358;2022-10-18T06:41:06;13.90;;;4.60;;
5285;SDS011;2665;53.112;7.358;2022-10-18T06:43:33;13.70;;;5.77;;
5285;SDS011;2665;53.112;7.358;2022-10-18T06:46:00;17.70;;;5.13;;
5285;SDS011;2665;53.112;7.358;2022-10-18T06:48:27;14.57;;;4.20;;
5285;SDS011;2665;53.112;7.358;2022-10-18T06:50:54;12.03;;;4.77;;
5285;SDS011;2665;53.112;7.358;2022-10-18T06:53:23;14.60;;;4.60;;
5285;SDS011;2665;53.112;7.358;2022-10-18T06:55:50;19.60;;;5.57;;
5285;SDS011;2665;53.112;7.358;2022-10-18T06:58:16;22.10;;;4.43;;
5285;SDS011;2665;53.112;7.358;2022-10-18T07:00:42;25.90;;;5.93;;
5285;SDS011;2665;53.112;7.358;2022-10-18T07:03:09;24.97;;;5.13;;
5285;SDS011;2665;53.112;7.358;2022-10-18T07:05:35;24.80;;;5.43;;
5285;SDS011;2665;53.112;7.358;2022-10-18T07:08:01;21.43;;;5.37;;
5285;SDS011;2665;53.112;7.358;2022-10-18T07:10:28;13.60;;;5.20;;
5285;SDS011;2665;53.112;7.358;2022-10-18T07:12:54;11.37;;;4.73;;
5285;SDS011;2665;53.112;7.358;2022-10-18T07:15:20;14.23;;;5.50;;
5285;SDS011;2665;53.112;7.358;2022-10-18T07:17:48;15.00;;;5.00;;
5285;SDS011;2665;53.112;7.358;2022-10-18T07:20:14;35.53;;;4.60;;
5285;SDS011;2665;53.112;7.358;2022-10-18T07:22:40;8.97;;;4.20;;
5285;SDS011;2665;53.112;7.358;2022-10-18T07:25:07;8.73;;;3.40;;
5285;SDS011;2665;53.112;7.358;2022-10-18T07:27:36;26.83;;;5.17;;
5285;SDS011;2665;53.112;7.358;2022-10-18T07:30:06;20.93;;;4.47;;
5285;SDS011;2665;53.112;7.358;2022-10-18T07:32:32;13.53;;;4.77;;
5285;SDS011;2665;53.112;7.358;2022-10-18T07:34:58;49.77;;;5.20;;
5285;SDS011;2665;53.112;7.358;2022-10-18T07:37:25;19.17;;;4.73;;
5285;SDS011;2665;53.112;7.358;2022-10-18T07:39:51;12.27;;;4.43;;
5285;SDS011;2665;53.112;7.358;2022-10-18T07:42:17;40.43;;;4.80;;
5285;SDS011;2665;53.112;7.358;2022-10-18T07:44:43;16.33;;;3.80;;
5285;SDS011;2665;53.112;7.358;2022-10-18T07:47:09;8.70;;;4.00;;
5285;SDS011;2665;53.112;7.358;2022-10-18T07:49:35;11.07;;;4.80;;
5285;SDS011;2665;53.112;7.358;2022-10-18T07:52:01;12.33;;;3.90;;
5285;SDS011;2665;53.112;7.358;2022-10-18T07:54:27;13.27;;;4.23;;
5285;SDS011;2665;53.112;7.358;2022-10-18T07:56:54;16.63;;;4.40;;
5285;SDS011;2665;53.112;7.358;2022-10-18T07:59:20;18.50;;;3.33;;
5285;SDS011;2665;53.112;7.358;2022-10-18T08:01:46;19.80;;;4.60;;
5285;SDS011;2665;53.112;7.358;2022-10-18T08:04:12;11.23;;;4.10;;
5285;SDS011;2665;53.112;7.358;2022-10-18T08:06:38;8.40;;;4.10;;
5285;SDS011;2665;53.112;7.358;2022-10-18T08:09:04;11.30;;;4.87;;
5285;SDS011;2665;53.112;7.358;2022-10-18T08:11:30;8.70;;;4.00;;
5285;SDS011;2665;53.112;7.358;2022-10-18T08:13:56;10.70;;;3.83;;
5285;SDS011;2665;53.112;7.358;2022-10-18T08:16:24;25.03;;;5.17;;
5285;SDS011;2665;53.112;7.358;2022-10-18T08:18:50;5.37;;;3.73;;
5285;SDS011;2665;53.112;7.358;2022-10-18T08:21:17;8.43;;;4.23;;
5285;SDS011;2665;53.112;7.358;2022-10-18T08:23:43;9.77;;;4.37;;
5285;SDS011;2665;53.112;7.358;2022-10-18T08:26:11;12.30;;;4.90;;
5285;SDS011;2665;53.112;7.358;2022-10-18T08:28:37;9.50;;;4.60;;
5285;SDS011;2665;53.112;7.358;2022-10-18T08:31:04;5.50;;;4.10;;
5285;SDS011;2665;53.112;7.358;2022-10-18T08:33:31;8.50;;;4.93;;
5285;SDS011;2665;53.112;7.358;2022-10-18T08:35:58;8.73;;;5.53;;
5285;SDS011;2665;53.112;7.358;2022-10-18T08:38:27;6.53;;;4.30;;
5285;SDS011;2665;53.112;7.358;2022-10-18T08:40:54;13.70;;;4.80;;
5285;SDS011;2665;53.112;7.358;2022-10-18T08:43:30;12.70;;;5.87;;
5285;SDS011;2665;53.112;7.358;2022-10-18T08:45:58;7.43;;;5.17;;
5285;SDS011;2665;53.112;7.358;2022-10-18T08:48:28;12.40;;;6.07;;
5285;SDS011;2665;53.112;7.358;2022-10-18T08:50:55;8.47;;;5.23;;
5285;SDS011;2665;53.112;7.358;2022-10-18T08:53:31;8.90;;;5.50;;
5285;SDS011;2665;53.112;7.358;2022-10-18T08:58:25;10.40;;;5.57;;
5285;SDS011;2665;53.112;7.358;2022-10-18T09:00:56;8.10;;;4.37;;
5285;SDS011;2665;53.112;7.358;2022-10-18T09:03:26;12.07;;;5.17;;
5285;SDS011;2665;53.112;7.358;2022-10-18T09:05:55;5.87;;;4.43;;
5285;SDS011;2665;53.112;7.358;2022-10-18T09:11:13;12.40;;;5.80;;
5285;SDS011;2665;53.112;7.358;2022-10-18T09:16:44;10.77;;;6.20;;
5285;SDS011;2665;53.112;7.358;2022-10-18T09:22:12;13.43;;;6.90;;
5285;SDS011;2665;53.112;7.358;2022-10-18T09:27:39;12.27;;;5.37;;
5285;SDS011;2665;53.112;7.358;2022-10-18T09:35:58;9.00;;;4.33;;
5285;SDS011;2665;53.112;7.358;2022-10-18T09:38:27;9.13;;;4.40;;
5285;SDS011;2665;53.112;7.358;2022-10-18T09:41:11;7.90;;;5.03;;
5285;SDS011;2665;53.112;7.358;2022-10-18T09:43:48;8.63;;;4.40;;
5285;SDS011;2665;53.112;7.358;2022-10-18T09:46:24;9.97;;;4.43;;
5285;SDS011;2665;53.112;7.358;2022-10-18T09:49:04;7.53;;;4.40;;
5285;SDS011;2665;53.112;7.358;2022-10-18T09:51:37;10.90;;;3.93;;
5285;SDS011;2665;53.112;7.358;2022-10-18T09:57:03;10.70;;;3.77;;
5285;SDS011;2665;53.112;7.358;2022-10-18T09:59:39;5.33;;;3.03;;
5285;SDS011;2665;53.112;7.358;2022-10-18T10:02:40;11.70;;;4.40;;
5285;SDS011;2665;53.112;7.358;2022-10-18T10:04:58;10.13;;;3.07;;
5285;SDS011;2665;53.112;7.358;2022-10-18T10:07:28;7.60;;;2.37;;
5285;SDS011;2665;53.112;7.358;2022-10-18T10:12:36;5.30;;;2.70;;
5285;SDS011;2665;53.112;7.358;2022-10-18T10:17:31;3.83;;;2.93;;
5285;SDS011;2665;53.112;7.358;2022-10-18T10:19:59;7.27;;;2.47;;
5285;SDS011;2665;53.112;7.358;2022-10-18T10:24:59;5.70;;;2.13;;
5285;SDS011;2665;53.112;7.358;2022-10-18T10:27:30;16.80;;;2.40;;
5285;SDS011;2665;53.112;7.358;2022-10-18T10:29:59;9.73;;;2.37;;
5285;SDS011;2665;53.112;7.358;2022-10-18T10:32:30;7.23;;;2.77;;
5285;SDS011;2665;53.112;7.358;2022-10-18T10:37:55;10.73;;;1.90;;
5285;SDS011;2665;53.112;7.358;2022-10-18T10:48:27;5.33;;;1.80;;
5285;SDS011;2665;53.112;7.358;2022-10-18T10:51:02;6.60;;;1.47;;
5285;SDS011;2665;53.112;7.358;2022-10-18T10:53:33;8.23;;;1.37;;
5285;SDS011;2665;53.112;7.358;2022-10-18T10:56:00;5.67;;;1.43;;
5285;SDS011;2665;53.112;7.358;2022-10-18T10:58:27;4.60;;;1.50;;
5285;SDS011;2665;53.112;7.358;2022-10-18T11:01:02;5.50;;;1.50;;
5285;SDS011;2665;53.112;7.358;2022-10-18T11:03:46;7.83;;;1.87;;
5285;SDS011;2665;53.112;7.358;2022-10-18T11:06:24;3.20;;;1.33;;
5285;SDS011;2665;53.112;7.358;2022-10-18T11:08:53;6.03;;;1.47;;
5285;SDS011;2665;53.112;7.358;2022-10-18T11:11:22;5.40;;;1.43;;
5285;SDS011;2665;53.112;7.358;2022-10-18T11:14:00;5.53;;;1.30;;
5285;SDS011;2665;53.112;7.358;2022-10-18T11:16:50;4.30;;;1.03;;
5285;SDS011;2665;53.112;7.358;2022-10-18T11:19:39;6.50;;;1.00;;
5285;SDS011;2665;53.112;7.358;2022-10-18T11:22:14;3.20;;;0.90;;
5285;SDS011;2665;53.112;7.358;2022-10-18T11:24:42;9.73;;;1.00;;
5285;SDS011;2665;53.112;7.358;2022-10-18T11:27:10;3.20;;;0.93;;
5285;SDS011;2665;53.112;7.358;2022-10-18T11:29:42;5.27;;;0.90;;
5285;SDS011;2665;53.112;7.358;2022-10-18T11:32:12;8.40;;;1.00;;
5285;SDS011;2665;53.112;7.358;2022-10-18T11:35:02;8.23;;;0.97;;
5285;SDS011;2665;53.112;7.358;2022-10-18T11:46:32;5.83;;;1.27;;
5285;SDS011;2665;53.112;7.358;2022-10-18T11:55:04;4.40;;;0.90;;
5285;SDS011;2665;53.112;7.358;2022-10-18T12:06:09;3.93;;;1.20;;
5285;SDS011;2665;53.112;7.358;2022-10-18T12:08:41;2.17;;;0.77;;
5285;SDS011;2665;53.112;7.358;2022-10-18T12:11:12;8.53;;;1.03;;
5285;SDS011;2665;53.112;7.358;2022-10-18T12:13:52;7.13;;;1.13;;
5285;SDS011;2665;53.112;7.358;2022-10-18T12:16:23;8.90;;;2.23;;
5285;SDS011;2665;53.112;7.358;2022-10-18T12:18:56;3.60;;;0.90;;
5285;SDS011;2665;53.112;7.358;2022-10-18T12:21:24;4.90;;;0.80;;
5285;SDS011;2665;53.112;7.358;2022-10-18T12:24:06;7.37;;;0.97;;
5285;SDS011;2665;53.112;7.358;2022-10-18T12:26:35;3.57;;;1.03;;
5285;SDS011;2665;53.112;7.358;2022-10-18T12:29:25;5.23;;;0.93;;
5285;SDS011;2665;53.112;7.358;2022-10-18T12:32:13;3.13;;;1.40;;
5285;SDS011;2665;53.112;7.358;2022-10-18T12:34:44;4.17;;;1.40;;
5285;SDS011;2665;53.112;7.358;2022-10-18T12:37:45;2.97;;;0.90;;
5285;SDS011;2665;53.112;7.358;2022-10-18T12:40:22;3.93;;;0.80;;
5285;SDS011;2665;53.112;7.358;2022-10-18T12:42:55;7.27;;;1.20;;
5285;SDS011;2665;53.112;7.358;2022-10-18T12:45:31;4.67;;;1.03;;
5285;SDS011;2665;53.112;7.358;2022-10-18T12:48:00;6.20;;;0.70;;
5285;SDS011;2665;53.112;7.358;2022-10-18T12:50:38;3.27;;;0.87;;
5285;SDS011;2665;53.112;7.358;2022-10-18T12:55:42;4.30;;;1.13;;
5285;SDS011;2665;53.112;7.358;2022-10-18T12:58:22;5.90;;;1.10;;
5285;SDS011;2665;53.112;7.358;2022-10-18T13:00:50;3.63;;;1.00;;
5285;SDS011;2665;53.112;7.358;2022-10-18T13:05:58;2.27;;;0.93;;
5285;SDS011;2665;53.112;7.358;2022-10-18T13:18:41;4.60;;;1.10;;
5285;SDS011;2665;53.112;7.358;2022-10-18T13:24:11;3.60;;;0.93;;
5285;SDS011;2665;53.112;7.358;2022-10-18T13:34:55;4.43;;;0.90;;
5285;SDS011;2665;53.112;7.358;2022-10-18T13:37:22;6.00;;;1.37;;
5285;SDS011;2665;53.112;7.358;2022-10-18T13:39:50;5.10;;;1.50;;
5285;SDS011;2665;53.112;7.358;2022-10-18T13:42:36;3.23;;;0.80;;
5285;SDS011;2665;53.112;7.358;2022-10-18T13:47:55;8.33;;;1.10;;
5285;SDS011;2665;53.112;7.358;2022-10-18T13:50:41;3.60;;;1.30;;
5285;SDS011;2665;53.112;7.358;2022-10-18T13:53:15;6.80;;;1.10;;
5285;SDS011;2665;53.112;7.358;2022-10-18T14:06:57;6.10;;;1.10;;
5285;SDS011;2665;53.112;7.358;2022-10-18T14:09:25;5.20;;;0.93;;
5285;SDS011;2665;53.112;7.358;2022-10-18T14:15:09;2.83;;;0.93;;
5285;SDS011;2665;53.112;7.358;2022-10-18T14:20:12;3.30;;;0.97;;
5285;SDS011;2665;53.112;7.358;2022-10-18T14:22:48;4.13;;;1.00;;
5285;SDS011;2665;53.112;7.358;2022-10-18T14:25:38;2.77;;;0.80;;
5285;SDS011;2665;53.112;7.358;2022-10-18T14:30:29;3.60;;;1.03;;
5285;SDS011;2665;53.112;7.358;2022-10-18T14:32:55;10.43;;;1.70;;
5285;SDS011;2665;53.112;7.358;2022-10-18T14:35:24;8.30;;;1.40;;
5285;SDS011;2665;53.112;7.358;2022-10-18T14:37:53;4.20;;;1.07;;
5285;SDS011;2665;53.112;7.358;2022-10-18T14:40:30;4.50;;;0.90;;
5285;SDS011;2665;53.112;7.358;2022-10-18T14:42:57;9.17;;;1.30;;
5285;SDS011;2665;53.112;7.358;2022-10-18T14:45:43;4.90;;;1.27;;
5285;SDS011;2665;53.112;7.358;2022-10-18T14:48:22;6.83;;;1.40;;
5285;SDS011;2665;53.112;7.358;2022-10-18T14:50:49;4.73;;;1.17;;
5285;SDS011;2665;53.112;7.358;2022-10-18T14:53:29;8.23;;;1.40;;
5285;SDS011;2665;53.112;7.358;2022-10-18T14:56:00;5.17;;;0.73;;
5285;SDS011;2665;53.112;7.358;2022-10-18T14:58:28;3.97;;;1.17;;
5285;SDS011;2665;53.112;7.358;2022-10-18T15:00:55;4.17;;;1.07;;
5285;SDS011;2665;53.112;7.358;2022-10-18T15:03:22;4.07;;;1.00;;
5285;SDS011;2665;53.112;7.358;2022-10-18T15:05:54;4.33;;;0.80;;
5285;SDS011;2665;53.112;7.358;2022-10-18T15:08:34;6.40;;;1.23;;
5285;SDS011;2665;53.112;7.358;2022-10-18T15:11:02;7.43;;;1.63;;
5285;SDS011;2665;53.112;7.358;2022-10-18T15:13:30;3.10;;;0.80;;
5285;SDS011;2665;53.112;7.358;2022-10-18T15:15:56;7.47;;;1.23;;
5285;SDS011;2665;53.112;7.358;2022-10-18T15:18:23;8.77;;;0.90;;
5285;SDS011;2665;53.112;7.358;2022-10-18T15:23:55;4.50;;;1.07;;
5285;SDS011;2665;53.112;7.358;2022-10-18T15:26:59;5.10;;;1.20;;
5285;SDS011;2665;53.112;7.358;2022-10-18T15:29:32;4.00;;;0.90;;
5285;SDS011;2665;53.112;7.358;2022-10-18T15:32:06;6.37;;;1.67;;
5285;SDS011;2665;53.112;7.358;2022-10-18T15:34:38;8.03;;;0.87;;
5285;SDS011;2665;53.112;7.358;2022-10-18T15:37:14;5.80;;;1.30;;
5285;SDS011;2665;53.112;7.358;2022-10-18T15:39:41;3.50;;;0.93;;
5285;SDS011;2665;53.112;7.358;2022-10-18T15:42:32;3.30;;;1.40;;
5285;SDS011;2665;53.112;7.358;2022-10-18T15:45:02;2.60;;;1.13;;
5285;SDS011;2665;53.112;7.358;2022-10-18T15:58:24;2.57;;;1.00;;
5285;SDS011;2665;53.112;7.358;2022-10-18T16:00:52;5.67;;;0.90;;
5285;SDS011;2665;53.112;7.358;2022-10-18T16:03:21;8.93;;;1.53;;
5285;SDS011;2665;53.112;7.358;2022-10-18T16:05:48;6.33;;;1.03;;
5285;SDS011;2665;53.112;7.358;2022-10-18T16:08:24;7.37;;;1.67;;
5285;SDS011;2665;53.112;7.358;2022-10-18T16:10:56;5.33;;;1.00;;
5285;SDS011;2665;53.112;7.358;2022-10-18T16:13:22;2.80;;;0.67;;
5285;SDS011;2665;53.112;7.358;2022-10-18T16:15:49;3.87;;;1.00;;
5285;SDS011;2665;53.112;7.358;2022-10-18T16:18:16;4.80;;;1.37;;
5285;SDS011;2665;53.112;7.358;2022-10-18T16:20:43;7.60;;;1.10;;
5285;SDS011;2665;53.112;7.358;2022-10-18T16:23:18;12.00;;;1.37;;
5285;SDS011;2665;53.112;7.358;2022-10-18T16:25:46;6.93;;;1.47;;
5285;SDS011;2665;53.112;7.358;2022-10-18T16:28:13;3.87;;;0.90;;
5285;SDS011;2665;53.112;7.358;2022-10-18T16:30:44;5.47;;;1.10;;
5285;SDS011;2665;53.112;7.358;2022-10-18T16:33:21;8.13;;;1.10;;
5285;SDS011;2665;53.112;7.358;2022-10-18T16:35:48;4.30;;;0.90;;
5285;SDS011;2665;53.112;7.358;2022-10-18T16:38:30;5.63;;;1.07;;
5285;SDS011;2665;53.112;7.358;2022-10-18T16:40:57;4.53;;;0.87;;
5285;SDS011;2665;53.112;7.358;2022-10-18T16:43:23;4.90;;;0.97;;
5285;SDS011;2665;53.112;7.358;2022-10-18T16:45:49;4.10;;;1.23;;
5285;SDS011;2665;53.112;7.358;2022-10-18T16:48:17;2.80;;;0.70;;
5285;SDS011;2665;53.112;7.358;2022-10-18T16:50:44;4.03;;;1.03;;
5285;SDS011;2665;53.112;7.358;2022-10-18T16:53:11;3.90;;;0.80;;
5285;SDS011;2665;53.112;7.358;2022-10-18T16:55:37;5.60;;;0.93;;
5285;SDS011;2665;53.112;7.358;2022-10-18T16:58:04;4.53;;;0.80;;
5285;SDS011;2665;53.112;7.358;2022-10-18T17:00:30;2.87;;;0.90;;
5285;SDS011;2665;53.112;7.358;2022-10-18T17:02:56;5.13;;;0.70;;
5285;SDS011;2665;53.112;7.358;2022-10-18T17:05:22;7.63;;;1.47;;
5285;SDS011;2665;53.112;7.358;2022-10-18T17:07:47;6.83;;;1.00;;
5285;SDS011;2665;53.112;7.358;2022-10-18T17:10:15;3.80;;;0.70;;
5285;SDS011;2665;53.112;7.358;2022-10-18T17:12:44;2.90;;;0.70;;
5285;SDS011;2665;53.112;7.358;2022-10-18T17:15:10;3.83;;;0.63;;
5285;SDS011;2665;53.112;7.358;2022-10-18T17:17:36;2.73;;;1.23;;
5285;SDS011;2665;53.112;7.358;2022-10-18T17:20:03;5.20;;;1.10;;
5285;SDS011;2665;53.112;7.358;2022-10-18T17:22:30;4.03;;;1.07;;
5285;SDS011;2665;53.112;7.358;2022-10-18T17:24:56;3.23;;;0.80;;
5285;SDS011;2665;53.112;7.358;2022-10-18T17:27:21;4.07;;;1.10;;
5285;SDS011;2665;53.112;7.358;2022-10-18T17:29:47;2.57;;;0.90;;
5285;SDS011;2665;53.112;7.358;2022-10-18T17:32:13;3.23;;;0.80;;
5285;SDS011;2665;53.112;7.358;2022-10-18T17:34:39;5.27;;;1.10;;
5285;SDS011;2665;53.112;7.358;2022-10-18T17:37:05;3.60;;;0.97;;
5285;SDS011;2665;53.112;7.358;2022-10-18T17:39:31;4.67;;;0.97;;
5285;SDS011;2665;53.112;7.358;2022-10-18T17:41:57;5.53;;;1.00;;
5285;SDS011;2665;53.112;7.358;2022-10-18T17:44:23;3.10;;;0.93;;
5285;SDS011;2665;53.112;7.358;2022-10-18T17:46:49;3.80;;;1.00;;
5285;SDS011;2665;53.112;7.358;2022-10-18T17:49:15;4.57;;;1.03;;
5285;SDS011;2665;53.112;7.358;2022-10-18T17:51:41;8.77;;;1.30;;